Felker Army Air Field
KFAF : rendu visible

Aérodrome :











RETROUVEZ-NOUS SUR...

 
LOGIN :

S'inscrire | Disclaimer

   EN    FR    IT 

 









Légende :    VFR   VFR Marginal   IFR   IFR Intensif   IFR Très Intensif
Visi : 
Plafond : 
>= 8 km
>= 3000ft
5 à 8 km
1000 à 3000 ft
1500m à 5 km
500 à 1000 ft
800 à 1500m
200 à 500 ft
< 800m
< 200 ft
Symboles :   Orages  Brouillard  Fortes neiges  Fortes précipitations  Vent > 20 kt






- Altitude de l'aérodrome : 12 ft


KFAF - Felker Army Air Field

DERNIER METAR :
  • 210756Z AUTO 34005KT 10SM CLR 07/00 A3023 RMK AO2 SLP240

METARs EXPIRÉS :
  • 210656Z AUTO 34006KT 10SM CLR 07/00 A3022 RMK AO2 SLP237 T00690003 $
  • 210556Z AUTO 33007KT 10SM CLR 07/01 A3021 RMK AO2 SLP233 T00690008 10096 20063 52008 $

TAF TAF KFAF
Valide du 20 à 19h jusqu'au 22 à 01h UTC


201900Z 2019/2201 34010G15KT 9999 BKN040 QNH3008INS
TEMPO 2019/2021 34012G25KT
BECMG 2101/2102 34006KT 9999 SKC QNH3021INS
BECMG 2118/2119 25003KT 9999 SCT180 QNH3018INS TX12/2019Z TN04/2112Z



MET'MAP, la Météo Aéronautique d'un coup d'oeil ! - Copyright ORBIFLY Décembre 2007 - Disclaimer

ORBIFLY MET'MAP TEAM :

Programmation & Développement : Alexandra Zaïnal
Conception & Développement : Baudouin d'Aumeries
Co-Programmation & Développement : Marc-Olivier Méhu
Soutien technique & logistique : Manuel Goepfert

Contact : metmap@orbifly.com




SOURCES & CREDITS :

   NOAA       Earth
Advisory